sensor_id;sensor_type;location;lat;lon;timestamp;P1;durP1;ratioP1;P2;durP2;ratioP2
43431;SDS011;40365;41.866;21.942;2022-07-11T00:00:28;3.10;;;1.90;;
43431;SDS011;40365;41.866;21.942;2022-07-11T00:03:36;3.55;;;1.60;;
43431;SDS011;40365;41.866;21.942;2022-07-11T00:06:02;3.70;;;1.90;;
43431;SDS011;40365;41.866;21.942;2022-07-11T00:08:28;2.30;;;1.80;;
43431;SDS011;40365;41.866;21.942;2022-07-11T00:10:54;3.50;;;1.58;;
43431;SDS011;40365;41.866;21.942;2022-07-11T00:15:25;2.20;;;1.42;;
43431;SDS011;40365;41.866;21.942;2022-07-11T00:17:51;2.38;;;1.60;;
43431;SDS011;40365;41.866;21.942;2022-07-11T00:26:53;2.53;;;1.63;;
43431;SDS011;40365;41.866;21.942;2022-07-11T00:29:19;4.90;;;1.80;;
43431;SDS011;40365;41.866;21.942;2022-07-11T00:31:45;3.08;;;1.70;;
43431;SDS011;40365;41.866;21.942;2022-07-11T00:34:11;3.03;;;1.65;;
43431;SDS011;40365;41.866;21.942;2022-07-11T00:36:38;3.60;;;1.65;;
43431;SDS011;40365;41.866;21.942;2022-07-11T00:42:21;5.30;;;1.90;;
43431;SDS011;40365;41.866;21.942;2022-07-11T00:46:52;3.17;;;2.00;;
43431;SDS011;40365;41.866;21.942;2022-07-11T00:51:10;3.28;;;1.80;;
43431;SDS011;40365;41.866;21.942;2022-07-11T00:56:45;2.00;;;1.17;;
43431;SDS011;40365;41.866;21.942;2022-07-11T00:59:51;2.85;;;1.40;;
43431;SDS011;40365;41.866;21.942;2022-07-11T01:02:18;5.63;;;1.75;;
43431;SDS011;40365;41.866;21.942;2022-07-11T01:04:45;3.80;;;1.63;;
43431;SDS011;40365;41.866;21.942;2022-07-11T01:07:30;1.85;;;1.20;;
43431;SDS011;40365;41.866;21.942;2022-07-11T01:13:12;3.35;;;1.63;;
43431;SDS011;40365;41.866;21.942;2022-07-11T01:16:28;2.25;;;1.20;;
43431;SDS011;40365;41.866;21.942;2022-07-11T01:20:39;3.15;;;1.10;;
43431;SDS011;40365;41.866;21.942;2022-07-11T01:24:12;2.97;;;1.25;;
43431;SDS011;40365;41.866;21.942;2022-07-11T01:26:57;1.45;;;1.13;;
43431;SDS011;40365;41.866;21.942;2022-07-11T01:31:20;1.25;;;1.00;;
43431;SDS011;40365;41.866;21.942;2022-07-11T01:34:23;2.22;;;1.38;;
43431;SDS011;40365;41.866;21.942;2022-07-11T01:38:22;2.15;;;1.27;;
43431;SDS011;40365;41.866;21.942;2022-07-11T01:40:48;1.50;;;1.10;;
43431;SDS011;40365;41.866;21.942;2022-07-11T01:44:58;3.15;;;1.30;;
43431;SDS011;40365;41.866;21.942;2022-07-11T01:47:25;4.55;;;1.48;;
43431;SDS011;40365;41.866;21.942;2022-07-11T01:51:35;1.58;;;1.00;;
43431;SDS011;40365;41.866;21.942;2022-07-11T01:54:01;2.22;;;1.20;;
43431;SDS011;40365;41.866;21.942;2022-07-11T01:56:27;1.50;;;1.10;;
43431;SDS011;40365;41.866;21.942;2022-07-11T01:59:45;2.70;;;1.30;;
43431;SDS011;40365;41.866;21.942;2022-07-11T02:02:11;1.65;;;1.00;;
43431;SDS011;40365;41.866;21.942;2022-07-11T02:05:57;1.45;;;1.10;;
43431;SDS011;40365;41.866;21.942;2022-07-11T02:09:02;2.25;;;1.30;;
43431;SDS011;40365;41.866;21.942;2022-07-11T02:14:22;1.75;;;1.10;;
43431;SDS011;40365;41.866;21.942;2022-07-11T02:16:48;2.53;;;1.08;;
43431;SDS011;40365;41.866;21.942;2022-07-11T02:19:14;2.97;;;0.98;;
43431;SDS011;40365;41.866;21.942;2022-07-11T02:22:45;12.98;;;1.85;;
43431;SDS011;40365;41.866;21.942;2022-07-11T02:25:31;3.33;;;1.63;;
43431;SDS011;40365;41.866;21.942;2022-07-11T02:27:57;1.05;;;0.95;;
43431;SDS011;40365;41.866;21.942;2022-07-11T02:30:50;5.70;;;1.20;;
43431;SDS011;40365;41.866;21.942;2022-07-11T02:33:45;2.75;;;1.35;;
43431;SDS011;40365;41.866;21.942;2022-07-11T02:36:11;2.30;;;1.13;;
43431;SDS011;40365;41.866;21.942;2022-07-11T02:38:38;2.65;;;1.20;;
43431;SDS011;40365;41.866;21.942;2022-07-11T02:41:04;2.50;;;1.30;;
43431;SDS011;40365;41.866;21.942;2022-07-11T02:45:04;4.68;;;1.35;;
43431;SDS011;40365;41.866;21.942;2022-07-11T02:47:32;2.67;;;1.35;;
43431;SDS011;40365;41.866;21.942;2022-07-11T02:49:58;2.00;;;1.00;;
43431;SDS011;40365;41.866;21.942;2022-07-11T02:52:24;2.10;;;1.30;;
43431;SDS011;40365;41.866;21.942;2022-07-11T02:54:50;2.15;;;1.10;;
43431;SDS011;40365;41.866;21.942;2022-07-11T02:57:16;2.03;;;1.15;;
43431;SDS011;40365;41.866;21.942;2022-07-11T03:00:14;3.58;;;1.10;;
43431;SDS011;40365;41.866;21.942;2022-07-11T03:02:41;2.70;;;1.10;;
43431;SDS011;40365;41.866;21.942;2022-07-11T03:07:40;9.13;;;1.75;;
43431;SDS011;40365;41.866;21.942;2022-07-11T03:10:07;2.25;;;1.30;;
43431;SDS011;40365;41.866;21.942;2022-07-11T03:18:20;4.65;;;1.70;;
43431;SDS011;40365;41.866;21.942;2022-07-11T03:20:46;4.82;;;2.03;;
43431;SDS011;40365;41.866;21.942;2022-07-11T03:23:12;4.88;;;1.38;;
43431;SDS011;40365;41.866;21.942;2022-07-11T03:25:38;2.70;;;1.40;;
43431;SDS011;40365;41.866;21.942;2022-07-11T03:28:04;2.90;;;1.60;;
43431;SDS011;40365;41.866;21.942;2022-07-11T03:30:31;3.05;;;1.40;;
43431;SDS011;40365;41.866;21.942;2022-07-11T03:33:41;3.38;;;1.33;;
43431;SDS011;40365;41.866;21.942;2022-07-11T03:36:07;3.78;;;1.20;;
43431;SDS011;40365;41.866;21.942;2022-07-11T03:40:17;1.83;;;1.30;;
43431;SDS011;40365;41.866;21.942;2022-07-11T03:42:43;2.97;;;1.35;;
43431;SDS011;40365;41.866;21.942;2022-07-11T03:46:47;1.58;;;1.30;;
43431;SDS011;40365;41.866;21.942;2022-07-11T03:49:13;1.63;;;1.20;;
43431;SDS011;40365;41.866;21.942;2022-07-11T03:55:30;2.15;;;1.10;;
43431;SDS011;40365;41.866;21.942;2022-07-11T03:59:29;2.95;;;1.23;;
43431;SDS011;40365;41.866;21.942;2022-07-11T04:01:55;2.50;;;1.45;;
43431;SDS011;40365;41.866;21.942;2022-07-11T04:05:45;5.97;;;1.30;;
43431;SDS011;40365;41.866;21.942;2022-07-11T04:08:11;7.32;;;1.40;;
43431;SDS011;40365;41.866;21.942;2022-07-11T04:10:37;2.75;;;1.40;;
43431;SDS011;40365;41.866;21.942;2022-07-11T04:13:18;4.30;;;1.23;;
43431;SDS011;40365;41.866;21.942;2022-07-11T04:15:44;2.58;;;1.40;;
43431;SDS011;40365;41.866;21.942;2022-07-11T04:19:46;1.65;;;1.20;;
43431;SDS011;40365;41.866;21.942;2022-07-11T04:22:12;2.53;;;1.10;;
43431;SDS011;40365;41.866;21.942;2022-07-11T04:26:11;2.00;;;1.05;;
43431;SDS011;40365;41.866;21.942;2022-07-11T04:33:59;4.05;;;1.38;;
43431;SDS011;40365;41.866;21.942;2022-07-11T04:36:25;3.28;;;1.48;;
43431;SDS011;40365;41.866;21.942;2022-07-11T04:38:51;2.70;;;1.30;;
43431;SDS011;40365;41.866;21.942;2022-07-11T04:41:17;2.40;;;1.20;;
43431;SDS011;40365;41.866;21.942;2022-07-11T04:44:18;2.47;;;1.35;;
43431;SDS011;40365;41.866;21.942;2022-07-11T04:46:44;2.80;;;1.50;;
43431;SDS011;40365;41.866;21.942;2022-07-11T04:49:10;3.17;;;1.20;;
43431;SDS011;40365;41.866;21.942;2022-07-11T04:52:51;2.83;;;1.60;;
43431;SDS011;40365;41.866;21.942;2022-07-11T04:55:17;2.03;;;1.23;;
43431;SDS011;40365;41.866;21.942;2022-07-11T04:57:44;2.17;;;1.40;;
43431;SDS011;40365;41.866;21.942;2022-07-11T05:00:10;1.92;;;1.33;;
43431;SDS011;40365;41.866;21.942;2022-07-11T05:02:36;2.60;;;1.20;;
43431;SDS011;40365;41.866;21.942;2022-07-11T05:05:03;1.90;;;1.23;;
43431;SDS011;40365;41.866;21.942;2022-07-11T05:08:46;2.05;;;1.10;;
43431;SDS011;40365;41.866;21.942;2022-07-11T05:11:12;2.40;;;1.30;;
43431;SDS011;40365;41.866;21.942;2022-07-11T05:13:39;3.15;;;1.65;;
43431;SDS011;40365;41.866;21.942;2022-07-11T05:16:05;3.83;;;1.30;;
43431;SDS011;40365;41.866;21.942;2022-07-11T05:19:30;5.13;;;1.67;;
43431;SDS011;40365;41.866;21.942;2022-07-11T05:23:02;6.05;;;1.73;;
43431;SDS011;40365;41.866;21.942;2022-07-11T05:25:28;3.42;;;1.25;;
43431;SDS011;40365;41.866;21.942;2022-07-11T05:35:00;1.60;;;1.10;;
43431;SDS011;40365;41.866;21.942;2022-07-11T05:37:28;2.28;;;1.42;;
43431;SDS011;40365;41.866;21.942;2022-07-11T05:42:09;1.90;;;1.17;;
43431;SDS011;40365;41.866;21.942;2022-07-11T05:44:44;1.45;;;1.10;;
43431;SDS011;40365;41.866;21.942;2022-07-11T05:48:14;1.60;;;0.95;;
43431;SDS011;40365;41.866;21.942;2022-07-11T05:52:35;3.25;;;1.80;;
43431;SDS011;40365;41.866;21.942;2022-07-11T05:57:15;5.88;;;1.40;;
43431;SDS011;40365;41.866;21.942;2022-07-11T05:59:41;3.10;;;1.45;;
43431;SDS011;40365;41.866;21.942;2022-07-11T06:03:08;1.55;;;0.90;;
43431;SDS011;40365;41.866;21.942;2022-07-11T06:05:34;1.98;;;1.13;;
43431;SDS011;40365;41.866;21.942;2022-07-11T06:08:00;3.38;;;1.17;;
43431;SDS011;40365;41.866;21.942;2022-07-11T06:10:45;2.20;;;1.27;;
43431;SDS011;40365;41.866;21.942;2022-07-11T06:13:29;1.52;;;0.90;;
43431;SDS011;40365;41.866;21.942;2022-07-11T06:15:55;1.88;;;1.10;;
43431;SDS011;40365;41.866;21.942;2022-07-11T06:18:58;2.00;;;0.90;;
43431;SDS011;40365;41.866;21.942;2022-07-11T06:26:46;4.63;;;1.63;;
43431;SDS011;40365;41.866;21.942;2022-07-11T06:29:13;2.90;;;1.40;;
43431;SDS011;40365;41.866;21.942;2022-07-11T06:31:39;3.35;;;0.85;;
43431;SDS011;40365;41.866;21.942;2022-07-11T06:34:06;2.20;;;0.90;;
43431;SDS011;40365;41.866;21.942;2022-07-11T06:37:20;3.55;;;1.00;;
43431;SDS011;40365;41.866;21.942;2022-07-11T06:41:17;2.85;;;1.10;;
43431;SDS011;40365;41.866;21.942;2022-07-11T06:45:02;4.25;;;1.00;;
43431;SDS011;40365;41.866;21.942;2022-07-11T06:47:28;1.98;;;1.27;;
43431;SDS011;40365;41.866;21.942;2022-07-11T06:49:54;3.35;;;1.40;;
43431;SDS011;40365;41.866;21.942;2022-07-11T06:53:38;2.63;;;1.30;;
43431;SDS011;40365;41.866;21.942;2022-07-11T06:57:35;2.45;;;1.38;;
43431;SDS011;40365;41.866;21.942;2022-07-11T07:00:01;1.48;;;0.80;;
43431;SDS011;40365;41.866;21.942;2022-07-11T07:02:27;1.88;;;0.80;;
43431;SDS011;40365;41.866;21.942;2022-07-11T07:09:10;3.63;;;0.60;;
43431;SDS011;40365;41.866;21.942;2022-07-11T07:11:36;2.00;;;0.77;;
43431;SDS011;40365;41.866;21.942;2022-07-11T07:17:11;1.58;;;0.57;;
43431;SDS011;40365;41.866;21.942;2022-07-11T07:19:38;3.38;;;0.60;;
43431;SDS011;40365;41.866;21.942;2022-07-11T07:22:04;3.65;;;0.55;;
43431;SDS011;40365;41.866;21.942;2022-07-11T07:24:33;3.33;;;1.08;;
43431;SDS011;40365;41.866;21.942;2022-07-11T07:27:01;3.85;;;1.10;;
43431;SDS011;40365;41.866;21.942;2022-07-11T07:29:27;2.28;;;0.70;;
43431;SDS011;40365;41.866;21.942;2022-07-11T07:31:53;2.17;;;0.82;;
43431;SDS011;40365;41.866;21.942;2022-07-11T07:34:20;6.95;;;1.50;;
43431;SDS011;40365;41.866;21.942;2022-07-11T07:36:46;3.33;;;1.55;;
43431;SDS011;40365;41.866;21.942;2022-07-11T07:39:12;4.05;;;0.98;;
43431;SDS011;40365;41.866;21.942;2022-07-11T07:42:24;5.45;;;1.55;;
43431;SDS011;40365;41.866;21.942;2022-07-11T07:44:50;4.20;;;1.23;;
43431;SDS011;40365;41.866;21.942;2022-07-11T07:47:16;2.58;;;0.77;;
43431;SDS011;40365;41.866;21.942;2022-07-11T07:49:42;6.05;;;1.02;;
43431;SDS011;40365;41.866;21.942;2022-07-11T07:53:34;2.60;;;0.82;;
43431;SDS011;40365;41.866;21.942;2022-07-11T07:56:00;1.42;;;0.82;;
43431;SDS011;40365;41.866;21.942;2022-07-11T07:58:26;3.53;;;1.30;;
43431;SDS011;40365;41.866;21.942;2022-07-11T08:00:52;2.47;;;1.02;;
43431;SDS011;40365;41.866;21.942;2022-07-11T08:05:03;2.90;;;1.10;;
43431;SDS011;40365;41.866;21.942;2022-07-11T08:07:29;3.70;;;0.77;;
43431;SDS011;40365;41.866;21.942;2022-07-11T08:09:55;4.28;;;1.50;;
43431;SDS011;40365;41.866;21.942;2022-07-11T08:12:22;1.65;;;0.70;;
43431;SDS011;40365;41.866;21.942;2022-07-11T08:14:48;2.50;;;1.70;;
43431;SDS011;40365;41.866;21.942;2022-07-11T08:17:14;1.65;;;0.73;;
43431;SDS011;40365;41.866;21.942;2022-07-11T08:19:40;4.05;;;0.90;;
43431;SDS011;40365;41.866;21.942;2022-07-11T08:22:33;1.45;;;0.65;;
43431;SDS011;40365;41.866;21.942;2022-07-11T08:24:59;0.88;;;0.60;;
43431;SDS011;40365;41.866;21.942;2022-07-11T08:27:26;1.27;;;0.70;;
43431;SDS011;40365;41.866;21.942;2022-07-11T08:29:52;1.98;;;0.80;;
43431;SDS011;40365;41.866;21.942;2022-07-11T08:32:18;0.90;;;0.50;;
43431;SDS011;40365;41.866;21.942;2022-07-11T08:34:44;2.10;;;0.65;;
43431;SDS011;40365;41.866;21.942;2022-07-11T08:37:11;1.33;;;0.70;;
43431;SDS011;40365;41.866;21.942;2022-07-11T08:39:37;1.38;;;0.65;;
43431;SDS011;40365;41.866;21.942;2022-07-11T08:42:03;0.57;;;0.52;;
43431;SDS011;40365;41.866;21.942;2022-07-11T08:44:30;0.93;;;0.68;;
43431;SDS011;40365;41.866;21.942;2022-07-11T08:48:14;1.23;;;0.55;;
43431;SDS011;40365;41.866;21.942;2022-07-11T08:50:41;2.03;;;0.52;;
43431;SDS011;40365;41.866;21.942;2022-07-11T08:55:42;1.15;;;0.50;;
43431;SDS011;40365;41.866;21.942;2022-07-11T09:05:11;3.00;;;1.15;;
43431;SDS011;40365;41.866;21.942;2022-07-11T09:07:44;2.10;;;0.70;;
43431;SDS011;40365;41.866;21.942;2022-07-11T09:12:22;1.42;;;0.77;;
43431;SDS011;40365;41.866;21.942;2022-07-11T09:14:49;1.88;;;0.90;;
43431;SDS011;40365;41.866;21.942;2022-07-11T09:21:07;1.55;;;0.60;;
43431;SDS011;40365;41.866;21.942;2022-07-11T09:26:04;1.23;;;0.60;;
43431;SDS011;40365;41.866;21.942;2022-07-11T09:30:38;1.35;;;0.93;;
43431;SDS011;40365;41.866;21.942;2022-07-11T09:33:08;1.35;;;0.80;;
43431;SDS011;40365;41.866;21.942;2022-07-11T09:37:30;2.20;;;0.68;;
43431;SDS011;40365;41.866;21.942;2022-07-11T09:42:46;1.30;;;0.77;;
43431;SDS011;40365;41.866;21.942;2022-07-11T09:47:19;2.35;;;1.00;;
43431;SDS011;40365;41.866;21.942;2022-07-11T09:49:46;3.03;;;0.90;;
43431;SDS011;40365;41.866;21.942;2022-07-11T09:52:13;2.15;;;0.70;;
43431;SDS011;40365;41.866;21.942;2022-07-11T09:54:55;1.23;;;0.85;;
43431;SDS011;40365;41.866;21.942;2022-07-11T09:57:28;1.87;;;0.67;;
43431;SDS011;40365;41.866;21.942;2022-07-11T09:59:55;2.50;;;0.60;;
43431;SDS011;40365;41.866;21.942;2022-07-11T10:04:34;3.20;;;0.70;;
43431;SDS011;40365;41.866;21.942;2022-07-11T10:07:00;0.85;;;0.68;;
43431;SDS011;40365;41.866;21.942;2022-07-11T10:09:26;2.25;;;0.70;;
43431;SDS011;40365;41.866;21.942;2022-07-11T10:11:53;1.35;;;0.70;;
43431;SDS011;40365;41.866;21.942;2022-07-11T10:14:19;1.92;;;0.90;;
43431;SDS011;40365;41.866;21.942;2022-07-11T10:16:55;0.95;;;0.73;;
43431;SDS011;40365;41.866;21.942;2022-07-11T10:19:41;3.05;;;0.70;;
43431;SDS011;40365;41.866;21.942;2022-07-11T10:22:16;1.52;;;0.88;;
43431;SDS011;40365;41.866;21.942;2022-07-11T10:26:45;0.93;;;0.50;;
43431;SDS011;40365;41.866;21.942;2022-07-11T10:29:17;3.33;;;0.70;;
43431;SDS011;40365;41.866;21.942;2022-07-11T10:34:11;1.33;;;0.40;;
43431;SDS011;40365;41.866;21.942;2022-07-11T10:36:44;1.05;;;0.70;;
43431;SDS011;40365;41.866;21.942;2022-07-11T10:39:22;1.40;;;0.70;;
43431;SDS011;40365;41.866;21.942;2022-07-11T10:41:52;1.50;;;0.67;;
43431;SDS011;40365;41.866;21.942;2022-07-11T10:44:19;3.72;;;0.65;;
43431;SDS011;40365;41.866;21.942;2022-07-11T10:46:45;2.30;;;0.60;;
43431;SDS011;40365;41.866;21.942;2022-07-11T10:58:36;1.73;;;0.73;;
43431;SDS011;40365;41.866;21.942;2022-07-11T11:01:10;0.52;;;0.52;;
43431;SDS011;40365;41.866;21.942;2022-07-11T11:03:37;1.08;;;0.55;;
43431;SDS011;40365;41.866;21.942;2022-07-11T11:06:03;1.38;;;0.60;;
43431;SDS011;40365;41.866;21.942;2022-07-11T11:11:06;4.07;;;0.85;;
43431;SDS011;40365;41.866;21.942;2022-07-11T11:13:36;1.42;;;0.50;;
43431;SDS011;40365;41.866;21.942;2022-07-11T11:16:02;3.20;;;1.10;;
43431;SDS011;40365;41.866;21.942;2022-07-11T11:18:43;1.60;;;0.70;;
43431;SDS011;40365;41.866;21.942;2022-07-11T11:23:36;3.30;;;0.70;;
43431;SDS011;40365;41.866;21.942;2022-07-11T11:26:10;2.13;;;0.68;;
43431;SDS011;40365;41.866;21.942;2022-07-11T11:28:36;1.17;;;0.63;;
43431;SDS011;40365;41.866;21.942;2022-07-11T11:31:03;1.63;;;0.50;;
43431;SDS011;40365;41.866;21.942;2022-07-11T11:33:31;3.30;;;0.80;;
43431;SDS011;40365;41.866;21.942;2022-07-11T11:36:04;1.25;;;0.50;;
43431;SDS011;40365;41.866;21.942;2022-07-11T11:38:39;1.05;;;0.60;;
43431;SDS011;40365;41.866;21.942;2022-07-11T11:41:05;0.43;;;0.43;;
43431;SDS011;40365;41.866;21.942;2022-07-11T11:43:32;1.55;;;0.68;;
43431;SDS011;40365;41.866;21.942;2022-07-11T11:45:59;2.30;;;1.05;;
43431;SDS011;40365;41.866;21.942;2022-07-11T11:48:32;1.02;;;0.50;;
43431;SDS011;40365;41.866;21.942;2022-07-11T11:51:09;1.75;;;0.52;;
43431;SDS011;40365;41.866;21.942;2022-07-11T11:53:39;1.08;;;0.65;;
43431;SDS011;40365;41.866;21.942;2022-07-11T11:56:16;0.95;;;0.60;;
43431;SDS011;40365;41.866;21.942;2022-07-11T11:58:43;1.17;;;0.50;;
43431;SDS011;40365;41.866;21.942;2022-07-11T12:01:13;1.40;;;1.02;;
43431;SDS011;40365;41.866;21.942;2022-07-11T12:03:58;2.70;;;1.00;;
43431;SDS011;40365;41.866;21.942;2022-07-11T12:06:35;1.40;;;0.60;;
43431;SDS011;40365;41.866;21.942;2022-07-11T12:09:05;1.40;;;0.65;;
43431;SDS011;40365;41.866;21.942;2022-07-11T12:11:35;0.75;;;0.50;;
43431;SDS011;40365;41.866;21.942;2022-07-11T12:14:02;2.00;;;0.70;;
43431;SDS011;40365;41.866;21.942;2022-07-11T12:16:28;0.73;;;0.70;;
43431;SDS011;40365;41.866;21.942;2022-07-11T12:19:13;1.00;;;0.47;;
43431;SDS011;40365;41.866;21.942;2022-07-11T12:24:06;0.43;;;0.38;;
43431;SDS011;40365;41.866;21.942;2022-07-11T12:26:33;3.58;;;0.98;;
43431;SDS011;40365;41.866;21.942;2022-07-11T12:31:41;1.60;;;0.50;;
43431;SDS011;40365;41.866;21.942;2022-07-11T12:34:08;1.73;;;0.43;;
43431;SDS011;40365;41.866;21.942;2022-07-11T12:36:34;1.33;;;0.60;;
43431;SDS011;40365;41.866;21.942;2022-07-11T12:39:00;1.02;;;0.50;;
43431;SDS011;40365;41.866;21.942;2022-07-11T12:41:28;2.35;;;0.57;;
43431;SDS011;40365;41.866;21.942;2022-07-11T12:43:57;0.90;;;0.57;;
43431;SDS011;40365;41.866;21.942;2022-07-11T12:46:42;2.47;;;0.90;;
43431;SDS011;40365;41.866;21.942;2022-07-11T12:49:11;0.40;;;0.40;;
43431;SDS011;40365;41.866;21.942;2022-07-11T12:51:38;2.00;;;0.73;;
43431;SDS011;40365;41.866;21.942;2022-07-11T12:54:06;0.55;;;0.40;;
43431;SDS011;40365;41.866;21.942;2022-07-11T12:56:33;2.00;;;1.25;;
43431;SDS011;40365;41.866;21.942;2022-07-11T12:59:01;5.60;;;1.23;;
43431;SDS011;40365;41.866;21.942;2022-07-11T13:01:28;0.50;;;0.40;;
43431;SDS011;40365;41.866;21.942;2022-07-11T13:03:55;0.43;;;0.40;;
43431;SDS011;40365;41.866;21.942;2022-07-11T13:06:21;0.63;;;0.47;;
43431;SDS011;40365;41.866;21.942;2022-07-11T13:09:06;1.33;;;0.60;;
43431;SDS011;40365;41.866;21.942;2022-07-11T13:11:33;0.70;;;0.40;;
43431;SDS011;40365;41.866;21.942;2022-07-11T13:14:00;3.78;;;0.50;;
43431;SDS011;40365;41.866;21.942;2022-07-11T13:16:26;2.15;;;0.60;;
43431;SDS011;40365;41.866;21.942;2022-07-11T13:18:52;2.60;;;0.70;;
43431;SDS011;40365;41.866;21.942;2022-07-11T13:21:19;0.32;;;0.30;;
43431;SDS011;40365;41.866;21.942;2022-07-11T13:23:45;0.80;;;0.50;;
43431;SDS011;40365;41.866;21.942;2022-07-11T13:26:12;1.00;;;0.60;;
43431;SDS011;40365;41.866;21.942;2022-07-11T13:28:38;2.53;;;0.60;;
43431;SDS011;40365;41.866;21.942;2022-07-11T13:31:04;4.07;;;0.30;;
43431;SDS011;40365;41.866;21.942;2022-07-11T13:33:31;1.40;;;0.70;;
43431;SDS011;40365;41.866;21.942;2022-07-11T13:35:58;1.77;;;0.70;;
43431;SDS011;40365;41.866;21.942;2022-07-11T13:38:24;0.75;;;0.47;;
43431;SDS011;40365;41.866;21.942;2022-07-11T13:40:50;1.33;;;0.50;;
43431;SDS011;40365;41.866;21.942;2022-07-11T13:43:16;2.15;;;0.60;;
43431;SDS011;40365;41.866;21.942;2022-07-11T13:45:43;2.97;;;0.68;;
43431;SDS011;40365;41.866;21.942;2022-07-11T13:48:10;2.50;;;0.65;;
43431;SDS011;40365;41.866;21.942;2022-07-11T13:50:36;3.08;;;0.68;;
43431;SDS011;40365;41.866;21.942;2022-07-11T13:53:03;1.33;;;0.60;;
43431;SDS011;40365;41.866;21.942;2022-07-11T13:55:29;0.32;;;0.30;;
43431;SDS011;40365;41.866;21.942;2022-07-11T13:57:55;0.57;;;0.43;;
43431;SDS011;40365;41.866;21.942;2022-07-11T14:00:22;0.70;;;0.50;;
43431;SDS011;40365;41.866;21.942;2022-07-11T14:02:49;1.73;;;0.60;;
43431;SDS011;40365;41.866;21.942;2022-07-11T14:05:15;0.93;;;0.50;;
43431;SDS011;40365;41.866;21.942;2022-07-11T14:07:43;0.52;;;0.50;;
43431;SDS011;40365;41.866;21.942;2022-07-11T14:10:09;0.80;;;0.50;;
43431;SDS011;40365;41.866;21.942;2022-07-11T14:12:36;0.43;;;0.43;;
43431;SDS011;40365;41.866;21.942;2022-07-11T14:15:02;2.08;;;0.80;;
43431;SDS011;40365;41.866;21.942;2022-07-11T14:17:28;0.32;;;0.32;;
43431;SDS011;40365;41.866;21.942;2022-07-11T14:19:55;0.82;;;0.45;;
43431;SDS011;40365;41.866;21.942;2022-07-11T14:22:22;1.33;;;0.57;;
43431;SDS011;40365;41.866;21.942;2022-07-11T14:24:48;0.90;;;0.40;;
43431;SDS011;40365;41.866;21.942;2022-07-11T14:27:14;1.63;;;0.57;;
43431;SDS011;40365;41.866;21.942;2022-07-11T14:29:41;1.27;;;0.50;;
43431;SDS011;40365;41.866;21.942;2022-07-11T14:32:08;2.45;;;0.93;;
43431;SDS011;40365;41.866;21.942;2022-07-11T14:34:35;1.85;;;0.80;;
43431;SDS011;40365;41.866;21.942;2022-07-11T14:37:02;1.23;;;0.40;;
43431;SDS011;40365;41.866;21.942;2022-07-11T14:39:29;1.65;;;0.65;;
43431;SDS011;40365;41.866;21.942;2022-07-11T14:41:55;0.50;;;0.30;;
43431;SDS011;40365;41.866;21.942;2022-07-11T14:44:23;2.25;;;0.43;;
43431;SDS011;40365;41.866;21.942;2022-07-11T14:46:49;0.90;;;0.40;;
43431;SDS011;40365;41.866;21.942;2022-07-11T14:49:15;1.35;;;0.70;;
43431;SDS011;40365;41.866;21.942;2022-07-11T14:51:41;1.58;;;0.55;;
43431;SDS011;40365;41.866;21.942;2022-07-11T14:54:07;1.45;;;0.40;;
43431;SDS011;40365;41.866;21.942;2022-07-11T14:56:34;1.27;;;0.40;;
43431;SDS011;40365;41.866;21.942;2022-07-11T14:59:02;0.82;;;0.57;;
43431;SDS011;40365;41.866;21.942;2022-07-11T15:01:30;1.10;;;0.50;;
43431;SDS011;40365;41.866;21.942;2022-07-11T15:03:56;1.75;;;0.70;;
43431;SDS011;40365;41.866;21.942;2022-07-11T15:06:23;3.85;;;0.50;;
43431;SDS011;40365;41.866;21.942;2022-07-11T15:09:09;1.85;;;0.63;;
43431;SDS011;40365;41.866;21.942;2022-07-11T15:11:53;1.75;;;0.65;;
43431;SDS011;40365;41.866;21.942;2022-07-11T15:14:38;2.33;;;0.75;;
43431;SDS011;40365;41.866;21.942;2022-07-11T15:17:04;2.13;;;0.70;;
43431;SDS011;40365;41.866;21.942;2022-07-11T15:19:30;0.88;;;0.40;;
43431;SDS011;40365;41.866;21.942;2022-07-11T15:21:56;1.38;;;0.60;;
43431;SDS011;40365;41.866;21.942;2022-07-11T15:24:23;0.43;;;0.40;;
43431;SDS011;40365;41.866;21.942;2022-07-11T15:26:49;2.00;;;0.50;;
43431;SDS011;40365;41.866;21.942;2022-07-11T15:29:15;3.28;;;0.70;;
43431;SDS011;40365;41.866;21.942;2022-07-11T15:31:41;2.72;;;0.93;;
43431;SDS011;40365;41.866;21.942;2022-07-11T15:34:07;2.88;;;1.05;;
43431;SDS011;40365;41.866;21.942;2022-07-11T15:36:34;2.53;;;0.98;;
43431;SDS011;40365;41.866;21.942;2022-07-11T15:39:00;3.65;;;1.27;;
43431;SDS011;40365;41.866;21.942;2022-07-11T15:41:26;0.73;;;0.50;;
43431;SDS011;40365;41.866;21.942;2022-07-11T15:43:52;0.98;;;0.70;;
43431;SDS011;40365;41.866;21.942;2022-07-11T15:46:18;1.23;;;0.60;;
43431;SDS011;40365;41.866;21.942;2022-07-11T15:48:45;6.72;;;0.90;;
43431;SDS011;40365;41.866;21.942;2022-07-11T15:51:11;0.80;;;0.40;;
43431;SDS011;40365;41.866;21.942;2022-07-11T15:53:37;0.95;;;0.40;;
43431;SDS011;40365;41.866;21.942;2022-07-11T15:56:03;1.80;;;0.70;;
43431;SDS011;40365;41.866;21.942;2022-07-11T15:58:29;2.75;;;1.13;;
43431;SDS011;40365;41.866;21.942;2022-07-11T16:00:59;0.40;;;0.40;;
43431;SDS011;40365;41.866;21.942;2022-07-11T16:03:28;2.22;;;0.50;;
43431;SDS011;40365;41.866;21.942;2022-07-11T16:05:57;0.98;;;0.68;;
43431;SDS011;40365;41.866;21.942;2022-07-11T16:08:24;1.83;;;0.65;;
43431;SDS011;40365;41.866;21.942;2022-07-11T16:10:50;1.40;;;0.60;;
43431;SDS011;40365;41.866;21.942;2022-07-11T16:13:16;1.48;;;0.60;;
43431;SDS011;40365;41.866;21.942;2022-07-11T16:15:43;3.92;;;0.60;;
43431;SDS011;40365;41.866;21.942;2022-07-11T16:18:12;0.40;;;0.40;;
43431;SDS011;40365;41.866;21.942;2022-07-11T16:20:39;2.05;;;0.73;;
43431;SDS011;40365;41.866;21.942;2022-07-11T16:23:05;1.17;;;0.90;;
43431;SDS011;40365;41.866;21.942;2022-07-11T16:25:31;1.67;;;0.60;;
43431;SDS011;40365;41.866;21.942;2022-07-11T16:27:58;5.30;;;0.85;;
43431;SDS011;40365;41.866;21.942;2022-07-11T16:30:24;1.10;;;0.70;;
43431;SDS011;40365;41.866;21.942;2022-07-11T16:33:00;1.02;;;0.73;;
43431;SDS011;40365;41.866;21.942;2022-07-11T16:35:27;2.65;;;0.90;;
43431;SDS011;40365;41.866;21.942;2022-07-11T16:37:53;1.60;;;0.77;;
43431;SDS011;40365;41.866;21.942;2022-07-11T16:40:20;1.48;;;0.90;;
43431;SDS011;40365;41.866;21.942;2022-07-11T16:43:05;3.38;;;0.93;;
43431;SDS011;40365;41.866;21.942;2022-07-11T16:46:20;1.30;;;0.70;;
43431;SDS011;40365;41.866;21.942;2022-07-11T16:48:46;1.70;;;0.60;;
43431;SDS011;40365;41.866;21.942;2022-07-11T16:52:52;1.85;;;0.80;;
43431;SDS011;40365;41.866;21.942;2022-07-11T16:55:18;1.08;;;0.70;;
43431;SDS011;40365;41.866;21.942;2022-07-11T16:57:44;1.05;;;0.70;;
43431;SDS011;40365;41.866;21.942;2022-07-11T17:00:11;2.72;;;0.93;;
43431;SDS011;40365;41.866;21.942;2022-07-11T17:03:16;2.30;;;0.90;;
43431;SDS011;40365;41.866;21.942;2022-07-11T17:05:43;2.55;;;0.90;;
43431;SDS011;40365;41.866;21.942;2022-07-11T17:08:09;2.15;;;0.80;;
43431;SDS011;40365;41.866;21.942;2022-07-11T17:11:49;2.28;;;0.77;;
43431;SDS011;40365;41.866;21.942;2022-07-11T17:14:15;5.38;;;0.90;;
43431;SDS011;40365;41.866;21.942;2022-07-11T17:16:41;1.50;;;0.90;;
43431;SDS011;40365;41.866;21.942;2022-07-11T17:19:40;2.13;;;1.08;;
43431;SDS011;40365;41.866;21.942;2022-07-11T17:23:53;2.83;;;0.80;;
43431;SDS011;40365;41.866;21.942;2022-07-11T17:26:19;3.92;;;1.40;;
43431;SDS011;40365;41.866;21.942;2022-07-11T17:30:40;3.03;;;1.00;;
43431;SDS011;40365;41.866;21.942;2022-07-11T17:33:07;0.88;;;0.70;;
43431;SDS011;40365;41.866;21.942;2022-07-11T17:35:33;1.83;;;0.90;;